Time;durP1;ratioP1;P1;durP2;ratioP2;P2;SDS_P1;SDS_P2;PMS_P1;PMS_P2;Temp;Humidity;BMP_temperature;BMP_pressure;BME280_temperature;BME280_humidity;BME280_pressure;Samples;Min_cycle;Max_cycle;Signal;HPM_P1;HPM_P2
2023/10/19 00:02:31;;;;;;;10.43;6.78;;;;;;;;;;6271445;28;20052;-83
2023/10/19 00:05:33;;;;;;;12.07;6.75;;;;;;;;;;6244835;28;20048;-84
2023/10/19 00:08:43;;;;;;;12.07;6.47;;;;;;;;;;6263838;28;20145;-84
2023/10/19 00:11:46;;;;;;;11.95;6.90;;;;;;;;;;6283128;28;20187;-85
2023/10/19 00:14:49;;;;;;;14.60;6.70;;;;;;;;;;6257616;28;20415;-84
2023/10/19 00:17:55;;;;;;;11.10;6.50;;;;;;;;;;6265759;28;20048;-85
2023/10/19 00:21:03;;;;;;;13.05;6.50;;;;;;;;;;6266597;28;20040;-85
2023/10/19 00:24:05;;;;;;;12.07;6.43;;;;;;;;;;6276168;28;20389;-85
2023/10/19 00:27:15;;;;;;;11.38;6.65;;;;;;;;;;6288498;28;20092;-85
2023/10/19 00:30:21;;;;;;;11.18;6.28;;;;;;;;;;6245708;28;20040;-85
2023/10/19 00:33:28;;;;;;;12.55;6.35;;;;;;;;;;6262737;28;20052;-84
2023/10/19 00:36:30;;;;;;;11.43;7.13;;;;;;;;;;6271829;28;20090;-86
2023/10/19 00:39:47;;;;;;;10.48;6.25;;;;;;;;;;6242450;28;20059;-83
2023/10/19 00:42:53;;;;;;;12.68;6.10;;;;;;;;;;6262410;28;20052;-83
2023/10/19 00:45:54;;;;;;;11.15;6.38;;;;;;;;;;6282634;28;20471;-83
2023/10/19 00:48:59;;;;;;;10.05;6.30;;;;;;;;;;6285536;28;20120;-84
2023/10/19 00:52:11;;;;;;;11.65;6.13;;;;;;;;;;6264626;28;20175;-83
2023/10/19 00:55:15;;;;;;;10.27;6.33;;;;;;;;;;6284140;28;20036;-83
2023/10/19 00:58:22;;;;;;;12.45;6.55;;;;;;;;;;6271982;28;20037;-83
2023/10/19 01:01:28;;;;;;;11.73;6.43;;;;;;;;;;6272126;28;20044;-84
2023/10/19 01:04:33;;;;;;;10.70;5.65;;;;;;;;;;6267929;28;20044;-83
2023/10/19 01:07:38;;;;;;;9.70;5.75;;;;;;;;;;6286951;28;20053;-86
2023/10/19 01:10:45;;;;;;;10.02;5.53;;;;;;;;;;6287874;28;20081;-84
2023/10/19 01:13:51;;;;;;;7.65;4.88;;;;;;;;;;6287863;28;20567;-85
2023/10/19 01:16:57;;;;;;;8.00;5.03;;;;;;;;;;6275850;28;20051;-84
2023/10/19 01:19:59;;;;;;;9.40;5.07;;;;;;;;;;6297537;28;20044;-84
2023/10/19 01:26:18;;;;;;;7.90;5.20;;;;;;;;;;6291352;28;20049;-85
2023/10/19 01:29:26;;;;;;;6.80;4.78;;;;;;;;;;6267156;28;20100;-85
2023/10/19 01:32:29;;;;;;;9.27;4.53;;;;;;;;;;6293063;28;20097;-84
2023/10/19 01:38:54;;;;;;;7.75;4.88;;;;;;;;;;6271651;28;20113;-83
2023/10/19 01:41:57;;;;;;;6.63;4.45;;;;;;;;;;6290734;28;20131;-85
2023/10/19 01:44:59;;;;;;;8.07;4.68;;;;;;;;;;6272775;28;20040;-83
2023/10/19 01:48:01;;;;;;;8.05;4.65;;;;;;;;;;6269116;28;20055;-85
2023/10/19 01:51:04;;;;;;;8.65;5.13;;;;;;;;;;6260459;28;20049;-85
2023/10/19 01:54:07;;;;;;;6.97;4.70;;;;;;;;;;6270509;28;20135;-86
2023/10/19 01:57:09;;;;;;;8.70;4.88;;;;;;;;;;6285823;28;20048;-86
2023/10/19 02:00:17;;;;;;;8.63;4.90;;;;;;;;;;6261334;28;20051;-84
2023/10/19 02:03:24;;;;;;;6.47;4.03;;;;;;;;;;6275286;28;20047;-85
2023/10/19 02:06:38;;;;;;;7.80;4.88;;;;;;;;;;6268500;28;20042;-83
2023/10/19 02:09:40;;;;;;;;;;;;;;;;;;6278547;28;20090;-86
2023/10/19 02:12:42;;;;;;;7.32;4.15;;;;;;;;;;6271210;28;19920;-86
2023/10/19 02:15:44;;;;;;;7.47;4.75;;;;;;;;;;6286295;28;20538;-85
2023/10/19 02:18:45;;;;;;;7.07;4.47;;;;;;;;;;6271772;28;20055;-84
2023/10/19 02:21:56;;;;;;;7.72;4.70;;;;;;;;;;6263489;28;20229;-83
2023/10/19 02:24:58;;;;;;;8.60;4.88;;;;;;;;;;6266201;28;20075;-86
2023/10/19 02:28:00;;;;;;;8.25;5.30;;;;;;;;;;6272830;28;20110;-84
2023/10/19 02:31:21;;;;;;;7.80;4.80;;;;;;;;;;6273053;28;20052;-85
2023/10/19 02:34:24;;;;;;;8.43;5.07;;;;;;;;;;6266387;28;20094;-85
2023/10/19 02:37:26;;;;;;;7.80;4.68;;;;;;;;;;6264767;28;20298;-84
2023/10/19 02:40:31;;;;;;;7.95;4.88;;;;;;;;;;6258561;28;20048;-85
2023/10/19 02:43:34;;;;;;;9.38;5.35;;;;;;;;;;6293220;28;20059;-85
2023/10/19 02:46:39;;;;;;;;;;;;;;;;;;6266999;28;20053;-86
2023/10/19 02:49:43;;;;;;;8.70;4.90;;;;;;;;;;6274777;28;19924;-86
2023/10/19 02:52:45;;;;;;;7.50;5.05;;;;;;;;;;6272395;28;20051;-86
2023/10/19 02:55:47;;;;;;;10.65;5.63;;;;;;;;;;6266445;28;20691;-86
2023/10/19 02:58:49;;;;;;;9.57;5.78;;;;;;;;;;6269144;28;20044;-83
2023/10/19 03:02:06;;;;;;;10.98;5.68;;;;;;;;;;6250911;28;20458;-84
2023/10/19 03:05:14;;;;;;;8.63;5.20;;;;;;;;;;6271524;28;20052;-86
2023/10/19 03:08:18;;;;;;;8.48;5.60;;;;;;;;;;6288591;28;20356;-84
2023/10/19 03:11:21;;;;;;;8.00;5.25;;;;;;;;;;6259618;28;20040;-82
2023/10/19 03:14:25;;;;;;;10.15;5.47;;;;;;;;;;6285655;28;20124;-84
2023/10/19 03:17:30;;;;;;;10.48;5.45;;;;;;;;;;6279680;28;20107;-86
2023/10/19 03:20:33;;;;;;;10.77;5.68;;;;;;;;;;6277385;28;20051;-84
2023/10/19 03:23:35;;;;;;;11.00;5.47;;;;;;;;;;6281516;28;20060;-86
2023/10/19 03:26:38;;;;;;;9.93;5.45;;;;;;;;;;6270807;28;20052;-84
2023/10/19 03:29:44;;;;;;;9.18;5.78;;;;;;;;;;6252720;28;20507;-83
2023/10/19 03:32:47;;;;;;;9.85;5.25;;;;;;;;;;6268967;28;20041;-84
2023/10/19 03:35:49;;;;;;;10.25;5.57;;;;;;;;;;6269635;28;20070;-83
2023/10/19 03:38:52;;;;;;;11.23;5.45;;;;;;;;;;6248887;28;20220;-82
2023/10/19 03:41:54;;;;;;;8.52;5.18;;;;;;;;;;6280768;28;20040;-84
2023/10/19 03:44:57;;;;;;;9.07;5.45;;;;;;;;;;6284938;28;20099;-83
2023/10/19 03:48:06;;;;;;;9.40;5.63;;;;;;;;;;6248367;28;20123;-83
2023/10/19 03:51:12;;;;;;;10.85;6.45;;;;;;;;;;6266836;28;20155;-83
2023/10/19 03:54:22;;;;;;;12.35;5.72;;;;;;;;;;6263088;28;20051;-85
2023/10/19 03:57:29;;;;;;;10.15;5.57;;;;;;;;;;6284638;28;20069;-83
2023/10/19 04:00:33;;;;;;;10.13;5.53;;;;;;;;;;6265028;28;20660;-86
2023/10/19 04:03:36;;;;;;;12.40;6.20;;;;;;;;;;6265777;28;20045;-83
2023/10/19 04:06:38;;;;;;;;;;;;;;;;;;6263180;28;20155;-85
2023/10/19 04:09:57;;;;;;;10.75;5.38;;;;;;;;;;6280385;28;19972;-83
2023/10/19 04:13:00;;;;;;;11.95;6.82;;;;;;;;;;6280279;28;20044;-83
2023/10/19 04:16:02;;;;;;;;;;;;;;;;;;6278166;28;20037;-83
2023/10/19 04:19:04;;;;;;;9.20;5.47;;;;;;;;;;6264019;28;19924;-82
2023/10/19 04:22:11;;;;;;;10.15;5.18;;;;;;;;;;6282843;28;20043;-83
2023/10/19 04:25:14;;;;;;;10.32;6.07;;;;;;;;;;6248020;28;20045;-83
2023/10/19 04:28:30;;;;;;;11.18;6.43;;;;;;;;;;6256434;28;20443;-84
2023/10/19 04:31:32;;;;;;;10.55;5.82;;;;;;;;;;6286775;28;20054;-83
2023/10/19 04:34:35;;;;;;;15.05;6.80;;;;;;;;;;6260838;28;20128;-84
2023/10/19 04:37:42;;;;;;;19.90;7.82;;;;;;;;;;6276780;28;20049;-85
2023/10/19 04:40:44;;;;;;;17.83;7.93;;;;;;;;;;6292906;28;20609;-84
2023/10/19 04:43:49;;;;;;;16.17;6.65;;;;;;;;;;6266378;28;20127;-84
2023/10/19 04:46:52;;;;;;;17.45;7.32;;;;;;;;;;6290213;28;20044;-86
2023/10/19 04:49:55;;;;;;;13.32;6.45;;;;;;;;;;6296456;28;20036;-85
2023/10/19 04:52:57;;;;;;;14.40;6.70;;;;;;;;;;6281081;28;20052;-83
2023/10/19 04:56:03;;;;;;;14.25;6.60;;;;;;;;;;6273678;28;20052;-86
2023/10/19 04:59:06;;;;;;;13.40;6.63;;;;;;;;;;6292700;28;20040;-86
2023/10/19 05:02:07;;;;;;;14.47;6.97;;;;;;;;;;6284324;28;20048;-86
2023/10/19 05:05:09;;;;;;;19.10;7.22;;;;;;;;;;6280830;28;20080;-83
2023/10/19 05:08:11;;;;;;;17.67;7.93;;;;;;;;;;6285216;28;20055;-84
2023/10/19 05:11:13;;;;;;;15.50;7.47;;;;;;;;;;6291995;28;20045;-84
2023/10/19 05:14:15;;;;;;;37.25;14.77;;;;;;;;;;6294866;28;20079;-85
2023/10/19 05:17:20;;;;;;;44.30;17.90;;;;;;;;;;6279187;28;20047;-85
2023/10/19 05:20:23;;;;;;;42.30;17.52;;;;;;;;;;6276441;28;20052;-83
2023/10/19 05:23:26;;;;;;;20.35;9.20;;;;;;;;;;6278652;28;20400;-85
2023/10/19 05:26:28;;;;;;;23.80;10.05;;;;;;;;;;6292388;28;20047;-85
2023/10/19 05:29:35;;;;;;;20.58;8.60;;;;;;;;;;6292630;28;20181;-86
2023/10/19 05:32:38;;;;;;;19.55;9.65;;;;;;;;;;6258621;28;20406;-83
2023/10/19 05:35:43;;;;;;;27.80;10.80;;;;;;;;;;6249943;28;20513;-83
2023/10/19 05:38:45;;;;;;;22.85;9.27;;;;;;;;;;6280188;28;20991;-84
2023/10/19 05:41:46;;;;;;;23.08;9.55;;;;;;;;;;6277384;28;20036;-83
2023/10/19 05:44:48;;;;;;;25.63;10.52;;;;;;;;;;6296379;28;20048;-85
2023/10/19 05:47:50;;;;;;;23.77;10.13;;;;;;;;;;6262842;28;20044;-86
2023/10/19 05:50:52;;;;;;;21.25;9.65;;;;;;;;;;6300806;28;20024;-86
2023/10/19 05:54:01;;;;;;;25.52;9.52;;;;;;;;;;6296496;28;20047;-86
2023/10/19 05:57:07;;;;;;;36.05;16.67;;;;;;;;;;6295867;28;20076;-85
2023/10/19 06:00:14;;;;;;;23.42;9.82;;;;;;;;;;6291924;28;20036;-86
2023/10/19 06:03:16;;;;;;;31.38;12.38;;;;;;;;;;6299392;28;20036;-86
2023/10/19 06:06:22;;;;;;;27.50;9.68;;;;;;;;;;6284946;28;20075;-85
2023/10/19 06:09:29;;;;;;;25.20;9.80;;;;;;;;;;6278660;28;20060;-89
2023/10/19 06:12:31;;;;;;;24.98;9.60;;;;;;;;;;6289987;28;20040;-87
2023/10/19 06:15:33;;;;;;;25.73;9.25;;;;;;;;;;6291448;28;20116;-87
2023/10/19 06:18:35;;;;;;;25.35;8.88;;;;;;;;;;6276555;28;20497;-83
2023/10/19 06:21:37;;;;;;;29.80;9.25;;;;;;;;;;6290223;28;20037;-87
2023/10/19 06:24:39;;;;;;;26.83;8.85;;;;;;;;;;6277843;28;20055;-86
2023/10/19 06:27:41;;;;;;;40.25;12.88;;;;;;;;;;6261028;28;20506;-83
2023/10/19 06:30:43;;;;;;;29.77;10.35;;;;;;;;;;6275154;28;20082;-86
2023/10/19 06:33:45;;;;;;;27.58;9.48;;;;;;;;;;6256255;28;20043;-86
2023/10/19 06:36:47;;;;;;;29.20;12.00;;;;;;;;;;6289315;28;20104;-86
2023/10/19 06:39:50;;;;;;;26.02;9.57;;;;;;;;;;6273404;28;20044;-86
2023/10/19 06:42:55;;;;;;;36.17;12.40;;;;;;;;;;6271423;28;20104;-86
2023/10/19 06:45:57;;;;;;;32.00;11.73;;;;;;;;;;6265307;28;20518;-86
2023/10/19 06:49:00;;;;;;;33.65;13.10;;;;;;;;;;6273909;28;20053;-87
2023/10/19 06:52:04;;;;;;;;;;;;;;;;;;6271237;28;20037;-85
2023/10/19 06:55:13;;;;;;;35.85;10.38;;;;;;;;;;6256341;28;20390;-86
2023/10/19 06:58:14;;;;;;;40.47;10.75;;;;;;;;;;6253717;28;20499;-86
2023/10/19 07:01:17;;;;;;;34.00;9.90;;;;;;;;;;6286307;28;20055;-86
2023/10/19 07:04:19;;;;;;;34.60;9.05;;;;;;;;;;6286489;28;20415;-86
2023/10/19 07:07:21;;;;;;;35.75;9.38;;;;;;;;;;6272698;28;20140;-85
2023/10/19 07:10:23;;;;;;;40.08;11.27;;;;;;;;;;6263282;28;20079;-86
2023/10/19 07:13:25;;;;;;;43.20;10.93;;;;;;;;;;6275092;28;20055;-86
2023/10/19 07:16:27;;;;;;;36.10;10.55;;;;;;;;;;6273889;28;20053;-86
2023/10/19 07:19:29;;;;;;;30.65;9.63;;;;;;;;;;6270886;28;20055;-83
2023/10/19 07:22:31;;;;;;;29.15;9.20;;;;;;;;;;6271781;28;20048;-85
2023/10/19 07:25:37;;;;;;;28.00;8.73;;;;;;;;;;6270582;28;20429;-86
2023/10/19 07:28:40;;;;;;;28.55;9.75;;;;;;;;;;6283079;28;20078;-85
2023/10/19 07:31:42;;;;;;;30.73;9.73;;;;;;;;;;6273464;28;20048;-85
2023/10/19 07:34:46;;;;;;;36.47;10.52;;;;;;;;;;6268067;28;20077;-85
2023/10/19 07:37:50;;;;;;;32.47;10.52;;;;;;;;;;6287983;28;20406;-84
2023/10/19 07:40:52;;;;;;;36.92;10.93;;;;;;;;;;6268278;28;20044;-87
2023/10/19 07:43:54;;;;;;;31.30;9.80;;;;;;;;;;6249064;28;20059;-83
2023/10/19 07:46:56;;;;;;;35.97;10.30;;;;;;;;;;6253938;28;20052;-84
2023/10/19 07:50:01;;;;;;;31.50;11.07;;;;;;;;;;6272072;28;20060;-85
2023/10/19 07:53:04;;;;;;;33.65;10.52;;;;;;;;;;6253776;28;20049;-84
2023/10/19 07:56:06;;;;;;;31.63;10.73;;;;;;;;;;6277811;28;20058;-84
2023/10/19 07:59:08;;;;;;;26.27;9.60;;;;;;;;;;6290814;28;20423;-85
2023/10/19 08:02:10;;;;;;;27.42;9.07;;;;;;;;;;6287401;28;20036;-84
2023/10/19 08:05:18;;;;;;;26.10;10.25;;;;;;;;;;6282998;28;20050;-84
2023/10/19 08:08:20;;;;;;;26.67;8.40;;;;;;;;;;6282280;28;20544;-84
2023/10/19 08:11:21;;;;;;;23.60;8.82;;;;;;;;;;6258127;28;20045;-85
2023/10/19 08:14:24;;;;;;;26.05;9.50;;;;;;;;;;6264079;28;20048;-84
2023/10/19 08:17:26;;;;;;;;;;;;;;;;;;6285344;28;20505;-83
2023/10/19 08:20:30;;;;;;;23.60;8.27;;;;;;;;;;6265865;28;19999;-84
2023/10/19 08:23:33;;;;;;;19.50;7.45;;;;;;;;;;6269946;28;20048;-85
2023/10/19 08:26:35;;;;;;;21.23;8.65;;;;;;;;;;6268751;28;20175;-82
2023/10/19 08:29:38;;;;;;;26.23;9.48;;;;;;;;;;6269614;28;20052;-85
2023/10/19 08:32:41;;;;;;;21.77;9.13;;;;;;;;;;6268472;28;20041;-84
2023/10/19 08:35:43;;;;;;;;;;;;;;;;;;6283570;28;20442;-83
2023/10/19 08:38:46;;;;;;;23.17;8.43;;;;;;;;;;6284919;28;19928;-84
2023/10/19 08:41:53;;;;;;;22.65;8.60;;;;;;;;;;6265366;28;20056;-84
2023/10/19 08:44:54;;;;;;;20.65;9.30;;;;;;;;;;6269090;28;20036;-84
2023/10/19 08:48:00;;;;;;;23.98;9.73;;;;;;;;;;6265573;28;20872;-84
2023/10/19 08:51:09;;;;;;;24.20;10.60;;;;;;;;;;6269346;28;20147;-85
2023/10/19 08:54:13;;;;;;;26.50;9.45;;;;;;;;;;6262612;28;20071;-85
2023/10/19 08:57:15;;;;;;;21.58;8.52;;;;;;;;;;6265167;28;20052;-83
2023/10/19 09:00:18;;;;;;;16.15;8.07;;;;;;;;;;6266958;28;20246;-85
2023/10/19 09:03:21;;;;;;;;;;;;;;;;;;6263459;28;20044;-84
2023/10/19 09:06:24;;;;;;;;;;;;;;;;;;6274500;28;19974;-85
2023/10/19 09:09:28;;;;;;;17.80;8.18;;;;;;;;;;6276139;28;19924;-85
2023/10/19 09:12:30;;;;;;;19.52;8.60;;;;;;;;;;6277161;28;20083;-84
2023/10/19 09:15:35;;;;;;;14.23;7.65;;;;;;;;;;6292581;28;20048;-84
2023/10/19 09:18:38;;;;;;;19.23;8.65;;;;;;;;;;6276148;28;20048;-82
2023/10/19 09:21:39;;;;;;;21.40;8.82;;;;;;;;;;6272357;28;20199;-83
2023/10/19 09:24:42;;;;;;;15.52;7.03;;;;;;;;;;6276197;28;20060;-83
2023/10/19 09:27:43;;;;;;;21.85;8.40;;;;;;;;;;6276213;28;20209;-84
2023/10/19 09:30:46;;;;;;;19.55;8.88;;;;;;;;;;6291920;28;20051;-84
2023/10/19 09:33:48;;;;;;;13.47;9.10;;;;;;;;;;6278144;28;20060;-83
2023/10/19 09:36:51;;;;;;;16.25;8.27;;;;;;;;;;6255676;28;20047;-84
2023/10/19 09:39:53;;;;;;;14.48;7.28;;;;;;;;;;6288070;28;20554;-85
2023/10/19 09:42:57;;;;;;;11.43;7.63;;;;;;;;;;6268782;28;20078;-85
2023/10/19 09:46:01;;;;;;;15.65;8.20;;;;;;;;;;6278909;28;20175;-84
2023/10/19 09:49:03;;;;;;;13.95;7.18;;;;;;;;;;6287784;28;20604;-85
2023/10/19 09:52:05;;;;;;;14.95;7.85;;;;;;;;;;6288831;28;20449;-83
2023/10/19 09:55:14;;;;;;;14.18;8.18;;;;;;;;;;6256782;28;20051;-85
2023/10/19 09:58:19;;;;;;;12.80;7.68;;;;;;;;;;6269582;28;20045;-85
2023/10/19 10:01:26;;;;;;;11.57;6.22;;;;;;;;;;6272991;28;20130;-85
2023/10/19 10:04:32;;;;;;;10.77;6.35;;;;;;;;;;6289777;28;20029;-84
2023/10/19 10:07:34;;;;;;;11.77;9.80;;;;;;;;;;6266194;28;20055;-85
2023/10/19 10:10:41;;;;;;;9.43;5.80;;;;;;;;;;6253233;28;20059;-85
2023/10/19 10:13:50;;;;;;;12.65;6.78;;;;;;;;;;6288781;28;20070;-83
2023/10/19 10:17:02;;;;;;;11.20;5.15;;;;;;;;;;6287251;28;20127;-85
2023/10/19 10:20:13;;;;;;;7.43;4.68;;;;;;;;;;6271994;28;20048;-86
2023/10/19 10:23:17;;;;;;;5.80;3.97;;;;;;;;;;6272957;28;20110;-84
2023/10/19 10:26:24;;;;;;;9.32;3.97;;;;;;;;;;6266806;28;20040;-83
2023/10/19 10:29:28;;;;;;;10.50;4.57;;;;;;;;;;6288565;28;20118;-83
2023/10/19 10:32:54;;;;;;;6.60;4.25;;;;;;;;;;6284153;28;20439;-85
2023/10/19 10:35:56;;;;;;;7.35;4.30;;;;;;;;;;6270439;28;20133;-85
2023/10/19 10:39:05;;;;;;;5.75;3.88;;;;;;;;;;6272227;28;20383;-86
2023/10/19 10:42:12;;;;;;;5.90;4.35;;;;;;;;;;6271778;28;20043;-84
2023/10/19 10:45:22;;;;;;;7.28;4.50;;;;;;;;;;6270188;28;20048;-85
2023/10/19 10:48:25;;;;;;;7.22;4.38;;;;;;;;;;6291854;28;20048;-85
2023/10/19 10:51:31;;;;;;;7.30;4.40;;;;;;;;;;6272516;28;20135;-85
2023/10/19 10:54:33;;;;;;;6.05;4.18;;;;;;;;;;6274625;28;20522;-86
2023/10/19 10:57:36;;;;;;;5.63;4.85;;;;;;;;;;6286187;28;20048;-83
2023/10/19 11:00:46;;;;;;;5.75;4.57;;;;;;;;;;6262759;28;20056;-85
2023/10/19 11:03:48;;;;;;;8.73;4.65;;;;;;;;;;6274535;28;20098;-83
2023/10/19 11:06:52;;;;;;;6.95;4.43;;;;;;;;;;6284439;28;20044;-84
2023/10/19 11:09:54;;;;;;;5.63;3.85;;;;;;;;;;6268847;28;20509;-83
2023/10/19 11:13:11;;;;;;;6.40;4.45;;;;;;;;;;6283699;28;20108;-83
2023/10/19 11:16:23;;;;;;;8.93;5.10;;;;;;;;;;6265259;28;20162;-85
2023/10/19 11:19:39;;;;;;;8.68;4.55;;;;;;;;;;6264267;28;20036;-84
2023/10/19 11:22:52;;;;;;;6.32;4.50;;;;;;;;;;6262439;28;20052;-84
2023/10/19 11:25:58;;;;;;;6.03;4.45;;;;;;;;;;6282501;28;20056;-85
2023/10/19 11:29:01;;;;;;;10.10;4.60;;;;;;;;;;6290627;28;20068;-85
2023/10/19 11:32:03;;;;;;;7.80;4.70;;;;;;;;;;6291923;28;20044;-86
2023/10/19 11:35:07;;;;;;;12.23;5.13;;;;;;;;;;6292961;28;20048;-87
2023/10/19 11:38:09;;;;;;;7.60;4.90;;;;;;;;;;6262937;28;20044;-85
2023/10/19 11:41:13;;;;;;;7.25;4.80;;;;;;;;;;6287205;28;20048;-85
2023/10/19 11:44:15;;;;;;;7.50;4.75;;;;;;;;;;6276129;28;20048;-84
2023/10/19 11:47:16;;;;;;;8.30;4.05;;;;;;;;;;6270573;28;20090;-84
2023/10/19 11:50:19;;;;;;;7.43;4.65;;;;;;;;;;6273609;28;20045;-85
2023/10/19 11:53:21;;;;;;;7.85;4.28;;;;;;;;;;6290075;28;20052;-84
2023/10/19 11:56:25;;;;;;;6.00;4.55;;;;;;;;;;6269631;28;20048;-86
2023/10/19 11:59:26;;;;;;;12.27;8.15;;;;;;;;;;6304449;28;20052;-86
2023/10/19 12:02:30;;;;;;;11.25;7.00;;;;;;;;;;6284483;28;20052;-85
2023/10/19 12:05:36;;;;;;;12.32;8.77;;;;;;;;;;6269077;28;20048;-85
2023/10/19 12:08:45;;;;;;;17.85;9.40;;;;;;;;;;6280184;28;20135;-85
2023/10/19 12:11:47;;;;;;;14.88;9.57;;;;;;;;;;6281718;28;20040;-86
2023/10/19 12:14:55;;;;;;;18.58;9.82;;;;;;;;;;6260453;28;20096;-85
2023/10/19 12:17:57;;;;;;;18.58;10.50;;;;;;;;;;6280705;28;20537;-84
2023/10/19 12:21:00;;;;;;;19.80;11.00;;;;;;;;;;6286353;28;20051;-84
2023/10/19 12:24:04;;;;;;;18.58;10.57;;;;;;;;;;6259964;28;20052;-82
2023/10/19 12:27:08;;;;;;;20.63;11.07;;;;;;;;;;6289497;28;20049;-83
2023/10/19 12:30:25;;;;;;;19.25;11.75;;;;;;;;;;6260034;28;20051;-83
2023/10/19 12:33:28;;;;;;;23.60;12.40;;;;;;;;;;6271728;28;20060;-81
2023/10/19 12:36:32;;;;;;;20.85;12.40;;;;;;;;;;6254326;28;20462;-83
2023/10/19 12:39:44;;;;;;;28.25;12.57;;;;;;;;;;6288750;28;20048;-83
2023/10/19 12:42:47;;;;;;;22.10;13.60;;;;;;;;;;6264778;28;20048;-82
2023/10/19 12:45:54;;;;;;;23.67;12.98;;;;;;;;;;6279059;28;20051;-82
2023/10/19 12:48:57;;;;;;;24.38;13.43;;;;;;;;;;6266269;28;20430;-82
2023/10/19 12:52:08;;;;;;;;;;;;;;;;;;6277809;28;20044;-82
2023/10/19 12:55:11;;;;;;;22.55;12.02;;;;;;;;;;6274510;28;20392;-83
2023/10/19 12:58:15;;;;;;;23.55;13.32;;;;;;;;;;6262783;28;20097;-83
2023/10/19 13:01:18;;;;;;;22.95;13.30;;;;;;;;;;6287346;28;20055;-82
2023/10/19 13:04:23;;;;;;;29.92;12.55;;;;;;;;;;6268311;28;20044;-83
2023/10/19 13:07:26;;;;;;;25.10;13.70;;;;;;;;;;6285580;28;20182;-83
2023/10/19 13:10:32;;;;;;;26.23;13.63;;;;;;;;;;6269987;28;20044;-82
2023/10/19 13:13:36;;;;;;;26.98;13.52;;;;;;;;;;6266861;28;20059;-83
2023/10/19 13:16:37;;;;;;;31.23;14.43;;;;;;;;;;6258350;28;20064;-83
2023/10/19 13:19:40;;;;;;;19.95;12.20;;;;;;;;;;6290421;28;20041;-84
2023/10/19 13:22:42;;;;;;;24.50;12.27;;;;;;;;;;6293818;28;20063;-83
2023/10/19 13:25:49;;;;;;;24.23;12.37;;;;;;;;;;6268579;28;20056;-82
2023/10/19 13:28:52;;;;;;;22.15;12.13;;;;;;;;;;6286243;28;20075;-82
2023/10/19 13:31:55;;;;;;;22.88;12.38;;;;;;;;;;6261546;28;20049;-84
2023/10/19 13:34:57;;;;;;;;;;;;;;;;;;6253802;28;20052;-84
2023/10/19 13:37:59;;;;;;;16.58;8.65;;;;;;;;;;6247882;28;19931;-84
2023/10/19 13:41:07;;;;;;;15.02;8.68;;;;;;;;;;6259291;28;20424;-83
2023/10/19 13:44:09;;;;;;;15.95;8.13;;;;;;;;;;6283013;28;20048;-84
2023/10/19 13:47:11;;;;;;;14.73;8.23;;;;;;;;;;6273062;28;20048;-82
2023/10/19 13:50:13;;;;;;;15.77;8.70;;;;;;;;;;6282257;28;20068;-83
2023/10/19 13:53:16;;;;;;;16.95;8.68;;;;;;;;;;6267336;28;20041;-83
2023/10/19 13:56:18;;;;;;;19.70;8.45;;;;;;;;;;6286820;28;20131;-84
2023/10/19 13:59:20;;;;;;;16.05;9.25;;;;;;;;;;6267780;28;20729;-86
2023/10/19 14:02:22;;;;;;;13.30;8.27;;;;;;;;;;6271405;28;20139;-85
2023/10/19 14:05:24;;;;;;;15.88;9.02;;;;;;;;;;6273396;28;20053;-84
2023/10/19 14:08:26;;;;;;;15.93;9.20;;;;;;;;;;6249765;28;20053;-83
2023/10/19 14:11:28;;;;;;;17.98;10.60;;;;;;;;;;6267965;28;20078;-84
2023/10/19 14:14:30;;;;;;;17.30;9.73;;;;;;;;;;6286949;28;20060;-84
2023/10/19 14:17:32;;;;;;;;;;;;;;;;;;6260123;28;20048;-84
2023/10/19 14:20:34;;;;;;;19.20;10.35;;;;;;;;;;6287864;28;19950;-82
2023/10/19 14:23:38;;;;;;;17.40;10.88;;;;;;;;;;6248632;28;20044;-84
2023/10/19 14:26:42;;;;;;;19.92;11.50;;;;;;;;;;6283813;28;20052;-83
2023/10/19 14:29:46;;;;;;;20.10;11.05;;;;;;;;;;6288888;28;20293;-84
2023/10/19 14:32:48;;;;;;;19.75;12.18;;;;;;;;;;6265792;28;20158;-82
2023/10/19 14:35:50;;;;;;;24.83;12.80;;;;;;;;;;6287771;28;20054;-82
2023/10/19 14:38:52;;;;;;;26.25;13.27;;;;;;;;;;6263306;28;20068;-84
2023/10/19 14:41:54;;;;;;;21.70;12.57;;;;;;;;;;6274502;28;20066;-83
2023/10/19 14:44:55;;;;;;;23.73;12.57;;;;;;;;;;6275718;28;20052;-82
2023/10/19 14:47:58;;;;;;;25.45;15.10;;;;;;;;;;6276693;28;20060;-81
2023/10/19 14:51:05;;;;;;;22.85;13.70;;;;;;;;;;6287057;28;20072;-85
2023/10/19 14:54:07;;;;;;;21.92;12.07;;;;;;;;;;6250103;28;20048;-82
2023/10/19 14:57:09;;;;;;;23.58;12.82;;;;;;;;;;6294213;28;20380;-84
2023/10/19 15:00:15;;;;;;;21.05;12.60;;;;;;;;;;6272117;28;20437;-84
2023/10/19 15:03:19;;;;;;;22.33;12.32;;;;;;;;;;6244037;28;20049;-82
2023/10/19 15:06:21;;;;;;;22.77;12.60;;;;;;;;;;6274126;28;20040;-82
2023/10/19 15:09:25;;;;;;;24.40;13.00;;;;;;;;;;6262535;28;20052;-84
2023/10/19 15:12:27;;;;;;;22.55;12.93;;;;;;;;;;6280657;28;20037;-85
2023/10/19 15:15:29;;;;;;;27.77;12.80;;;;;;;;;;6264955;28;20040;-85
2023/10/19 15:18:31;;;;;;;24.87;13.83;;;;;;;;;;6266205;28;20136;-85
2023/10/19 15:21:33;;;;;;;27.30;14.23;;;;;;;;;;6269751;28;20055;-83
2023/10/19 15:24:36;;;;;;;28.05;13.95;;;;;;;;;;6265318;28;20048;-82
2023/10/19 15:27:42;;;;;;;27.10;13.45;;;;;;;;;;6269202;28;20056;-84
2023/10/19 15:30:44;;;;;;;24.63;12.88;;;;;;;;;;6268963;28;20041;-83
2023/10/19 15:33:47;;;;;;;24.58;12.95;;;;;;;;;;6263532;28;20059;-83
2023/10/19 15:36:49;;;;;;;28.25;13.70;;;;;;;;;;6270919;28;20059;-84
2023/10/19 15:39:52;;;;;;;30.30;15.23;;;;;;;;;;6252820;28;20728;-83
2023/10/19 15:42:54;;;;;;;34.60;15.18;;;;;;;;;;6264324;28;20502;-82
2023/10/19 15:46:02;;;;;;;23.38;13.00;;;;;;;;;;6258615;28;20056;-83
2023/10/19 15:49:08;;;;;;;27.95;12.77;;;;;;;;;;6265229;28;20045;-81
2023/10/19 15:52:13;;;;;;;25.95;12.90;;;;;;;;;;6269206;28;20052;-84
2023/10/19 15:55:15;;;;;;;26.02;13.18;;;;;;;;;;6280985;28;20170;-82
2023/10/19 15:58:20;;;;;;;;;;;;;;;;;;6284029;28;20044;-83
2023/10/19 16:01:21;;;;;;;24.67;12.95;;;;;;;;;;6279169;28;19946;-83
2023/10/19 16:04:23;;;;;;;26.15;12.70;;;;;;;;;;6254155;28;20044;-82
2023/10/19 16:07:25;;;;;;;27.70;14.60;;;;;;;;;;6254110;28;20040;-83
2023/10/19 16:10:26;;;;;;;27.95;13.32;;;;;;;;;;6268513;28;20086;-81
2023/10/19 16:13:28;;;;;;;26.80;13.40;;;;;;;;;;6281925;28;20126;-83
2023/10/19 16:16:30;;;;;;;24.70;12.55;;;;;;;;;;6253142;28;20071;-83
2023/10/19 16:19:32;;;;;;;20.90;10.90;;;;;;;;;;6264436;28;20063;-82
2023/10/19 16:22:34;;;;;;;22.55;12.05;;;;;;;;;;6273984;28;20410;-83
2023/10/19 16:25:35;;;;;;;29.02;14.70;;;;;;;;;;6276743;28;20044;-83
2023/10/19 16:28:37;;;;;;;41.35;22.38;;;;;;;;;;6254107;28;20515;-83
2023/10/19 16:31:39;;;;;;;35.03;18.95;;;;;;;;;;6283995;28;20418;-83
2023/10/19 16:34:41;;;;;;;28.38;14.20;;;;;;;;;;6252543;28;20052;-83
2023/10/19 16:37:42;;;;;;;23.83;12.25;;;;;;;;;;6281291;28;20482;-83
2023/10/19 16:40:44;;;;;;;23.58;11.38;;;;;;;;;;6244592;28;20062;-83
2023/10/19 16:43:46;;;;;;;24.73;12.38;;;;;;;;;;6280984;28;20499;-82
2023/10/19 16:46:48;;;;;;;23.83;12.80;;;;;;;;;;6262730;28;20291;-83
2023/10/19 16:49:50;;;;;;;24.27;13.18;;;;;;;;;;6260532;28;20044;-83
2023/10/19 16:52:52;;;;;;;28.25;14.05;;;;;;;;;;6256448;28;20040;-82
2023/10/19 16:56:01;;;;;;;25.55;12.80;;;;;;;;;;6244593;28;20135;-83
2023/10/19 16:59:03;;;;;;;24.30;12.65;;;;;;;;;;6258817;28;20045;-85
2023/10/19 17:02:05;;;;;;;31.85;13.95;;;;;;;;;;6250049;28;20108;-85
2023/10/19 17:05:08;;;;;;;28.77;12.80;;;;;;;;;;6261855;28;20466;-85
2023/10/19 17:08:10;;;;;;;22.55;12.77;;;;;;;;;;6283687;28;20260;-85
2023/10/19 17:11:12;;;;;;;25.95;12.43;;;;;;;;;;6260485;28;20085;-84
2023/10/19 17:14:14;;;;;;;26.67;13.32;;;;;;;;;;6282580;28;20048;-85
2023/10/19 17:17:17;;;;;;;29.27;15.45;;;;;;;;;;6249678;28;20117;-83
2023/10/19 17:20:22;;;;;;;32.05;16.67;;;;;;;;;;6262029;28;20119;-85
2023/10/19 17:23:24;;;;;;;29.67;17.35;;;;;;;;;;6260730;28;20043;-83
2023/10/19 17:26:26;;;;;;;28.10;14.63;;;;;;;;;;6267879;28;20049;-83
2023/10/19 17:29:28;;;;;;;30.33;14.18;;;;;;;;;;6264766;28;20162;-84
2023/10/19 17:32:29;;;;;;;30.30;13.63;;;;;;;;;;6270968;28;20067;-82
2023/10/19 17:35:31;;;;;;;28.75;15.05;;;;;;;;;;6275311;28;20079;-83
2023/10/19 17:38:33;;;;;;;28.65;15.57;;;;;;;;;;6270620;28;20506;-84
2023/10/19 17:41:35;;;;;;;34.88;18.08;;;;;;;;;;6255410;28;20054;-83
2023/10/19 17:44:36;;;;;;;42.50;22.33;;;;;;;;;;6259350;28;20063;-85
2023/10/19 17:47:38;;;;;;;36.17;19.10;;;;;;;;;;6267118;28;20051;-84
2023/10/19 17:50:40;;;;;;;43.95;20.08;;;;;;;;;;6274146;28;20098;-84
2023/10/19 17:53:43;;;;;;;43.00;20.95;;;;;;;;;;6272449;28;20140;-85
2023/10/19 17:56:45;;;;;;;38.30;18.50;;;;;;;;;;6258082;28;20395;-83
2023/10/19 17:59:47;;;;;;;41.80;18.30;;;;;;;;;;6276067;28;20055;-83
2023/10/19 18:02:49;;;;;;;45.47;21.02;;;;;;;;;;6277204;28;20041;-83
2023/10/19 18:05:51;;;;;;;36.30;16.88;;;;;;;;;;6288222;28;20303;-83
2023/10/19 18:08:52;;;;;;;31.33;16.45;;;;;;;;;;6269206;28;20142;-84
2023/10/19 18:11:54;;;;;;;32.20;16.50;;;;;;;;;;6257245;28;20056;-83
2023/10/19 18:14:56;;;;;;;32.63;16.60;;;;;;;;;;6277443;28;20044;-84